DAOB/TID METAR and TAF weather

Enter ICAO airport designator
Station Type Date Time Source
DAOB METAR 2018/12/13 15:00 UTC NOAA

DAOB 131500Z 21018KT 9999 FEW023 SCT026 13/04 Q1011


Station Type Date Time Source
DAOB Decoded METAR 2018/12/13 15:00 UTC NOAA

Tiaret, Algeria (DAOB) 35-15N 001-26E 1127M
Dec 13, 2018 - 10:00 AM EST / 2018.12.13 1500 UTC
Wind: from the SSW (210 degrees) at 21 MPH (18 KT):0
Visibility: greater than 7 mile(s):0
Sky conditions: partly cloudy
Temperature: 55 F (13 C)
Dew Point: 39 F (4 C)
Relative Humidity: 54%
Pressure (altimeter): 29.85 in. Hg (1011 hPa)
ob: DAOB 131500Z 21018KT 9999 FEW023 SCT026 13/04 Q1011
cycle: 15

Station Type Date Time Source
DAOB TAF 2018/12/13 12:33 UTC NOAA

TAF DAOB 131100Z 1312/1412 24010KT 9999 SCT023 SCT090 PROB30
TEMPO 1312/1318 FEW020TCU
BECMG 1317/1321 28020KT
TEMPO 1318/1406 28020G30KT 5000 -RA FEW023CB PROB40
TEMPO 1400/1406 30020G40KT 5000 -TSRA FEW020CB


Example: see airport list